sensor_id;sensor_type;location;lat;lon;timestamp;P1;durP1;ratioP1;P2;durP2;ratioP2
30398;SDS011;17195;50.838;7.214;2022-07-24T00:01:28;7.72;;;6.30;;
30398;SDS011;17195;50.838;7.214;2022-07-24T00:03:54;7.82;;;6.22;;
30398;SDS011;17195;50.838;7.214;2022-07-24T00:06:20;6.43;;;5.90;;
30398;SDS011;17195;50.838;7.214;2022-07-24T00:08:45;7.28;;;6.60;;
30398;SDS011;17195;50.838;7.214;2022-07-24T00:11:11;8.98;;;6.63;;
30398;SDS011;17195;50.838;7.214;2022-07-24T00:13:36;6.68;;;6.00;;
30398;SDS011;17195;50.838;7.214;2022-07-24T00:16:02;6.90;;;6.30;;
30398;SDS011;17195;50.838;7.214;2022-07-24T00:18:28;7.53;;;6.70;;
30398;SDS011;17195;50.838;7.214;2022-07-24T00:20:53;7.43;;;6.50;;
30398;SDS011;17195;50.838;7.214;2022-07-24T00:23:19;7.45;;;6.75;;
30398;SDS011;17195;50.838;7.214;2022-07-24T00:25:46;7.57;;;6.88;;
30398;SDS011;17195;50.838;7.214;2022-07-24T00:28:12;8.23;;;6.53;;
30398;SDS011;17195;50.838;7.214;2022-07-24T00:30:37;7.25;;;6.47;;
30398;SDS011;17195;50.838;7.214;2022-07-24T00:33:03;6.75;;;6.03;;
30398;SDS011;17195;50.838;7.214;2022-07-24T00:35:29;8.13;;;6.07;;
30398;SDS011;17195;50.838;7.214;2022-07-24T00:37:54;7.43;;;6.70;;
30398;SDS011;17195;50.838;7.214;2022-07-24T00:40:20;7.15;;;6.55;;
30398;SDS011;17195;50.838;7.214;2022-07-24T00:42:46;7.75;;;6.78;;
30398;SDS011;17195;50.838;7.214;2022-07-24T00:45:12;9.90;;;6.57;;
30398;SDS011;17195;50.838;7.214;2022-07-24T00:47:37;9.75;;;6.90;;
30398;SDS011;17195;50.838;7.214;2022-07-24T00:50:03;8.25;;;6.15;;
30398;SDS011;17195;50.838;7.214;2022-07-24T00:52:29;7.45;;;6.32;;
30398;SDS011;17195;50.838;7.214;2022-07-24T00:54:55;6.50;;;6.00;;
30398;SDS011;17195;50.838;7.214;2022-07-24T00:57:21;8.05;;;7.10;;
30398;SDS011;17195;50.838;7.214;2022-07-24T00:59:46;7.63;;;6.68;;
30398;SDS011;17195;50.838;7.214;2022-07-24T01:02:12;6.63;;;6.10;;
30398;SDS011;17195;50.838;7.214;2022-07-24T01:04:38;9.27;;;7.15;;
30398;SDS011;17195;50.838;7.214;2022-07-24T01:07:04;6.93;;;6.32;;
30398;SDS011;17195;50.838;7.214;2022-07-24T01:09:31;7.47;;;6.68;;
30398;SDS011;17195;50.838;7.214;2022-07-24T01:11:56;7.32;;;6.63;;
30398;SDS011;17195;50.838;7.214;2022-07-24T01:14:23;7.63;;;6.38;;
30398;SDS011;17195;50.838;7.214;2022-07-24T01:16:49;6.95;;;6.25;;
30398;SDS011;17195;50.838;7.214;2022-07-24T01:19:16;10.20;;;6.60;;
30398;SDS011;17195;50.838;7.214;2022-07-24T01:21:46;7.10;;;6.40;;
30398;SDS011;17195;50.838;7.214;2022-07-24T01:24:13;7.13;;;6.43;;
30398;SDS011;17195;50.838;7.214;2022-07-24T01:26:39;7.97;;;6.60;;
30398;SDS011;17195;50.838;7.214;2022-07-24T01:29:04;7.85;;;6.85;;
30398;SDS011;17195;50.838;7.214;2022-07-24T01:31:30;8.38;;;6.15;;
30398;SDS011;17195;50.838;7.214;2022-07-24T01:33:55;8.98;;;6.47;;
30398;SDS011;17195;50.838;7.214;2022-07-24T01:36:21;9.05;;;6.78;;
30398;SDS011;17195;50.838;7.214;2022-07-24T01:38:46;7.10;;;6.40;;
30398;SDS011;17195;50.838;7.214;2022-07-24T01:41:12;7.45;;;6.75;;
30398;SDS011;17195;50.838;7.214;2022-07-24T01:43:38;7.60;;;6.93;;
30398;SDS011;17195;50.838;7.214;2022-07-24T01:46:03;7.28;;;6.68;;
30398;SDS011;17195;50.838;7.214;2022-07-24T01:48:29;8.18;;;7.10;;
30398;SDS011;17195;50.838;7.214;2022-07-24T01:50:55;7.45;;;6.75;;
30398;SDS011;17195;50.838;7.214;2022-07-24T01:53:20;9.23;;;7.15;;
30398;SDS011;17195;50.838;7.214;2022-07-24T01:55:46;8.38;;;6.97;;
30398;SDS011;17195;50.838;7.214;2022-07-24T01:58:14;7.57;;;6.22;;
30398;SDS011;17195;50.838;7.214;2022-07-24T02:00:40;9.00;;;7.00;;
30398;SDS011;17195;50.838;7.214;2022-07-24T02:03:05;7.28;;;6.68;;
30398;SDS011;17195;50.838;7.214;2022-07-24T02:05:31;7.07;;;6.20;;
30398;SDS011;17195;50.838;7.214;2022-07-24T02:07:57;7.47;;;6.78;;
30398;SDS011;17195;50.838;7.214;2022-07-24T02:10:24;7.40;;;6.20;;
30398;SDS011;17195;50.838;7.214;2022-07-24T02:12:51;9.95;;;7.30;;
30398;SDS011;17195;50.838;7.214;2022-07-24T02:15:16;9.02;;;7.40;;
30398;SDS011;17195;50.838;7.214;2022-07-24T02:18:00;8.27;;;7.18;;
30398;SDS011;17195;50.838;7.214;2022-07-24T02:20:27;7.57;;;6.70;;
30398;SDS011;17195;50.838;7.214;2022-07-24T02:22:53;7.97;;;7.18;;
30398;SDS011;17195;50.838;7.214;2022-07-24T02:25:19;8.90;;;7.35;;
30398;SDS011;17195;50.838;7.214;2022-07-24T02:27:45;9.88;;;7.63;;
30398;SDS011;17195;50.838;7.214;2022-07-24T02:30:12;7.75;;;7.05;;
30398;SDS011;17195;50.838;7.214;2022-07-24T02:32:39;7.68;;;6.90;;
30398;SDS011;17195;50.838;7.214;2022-07-24T02:35:05;7.18;;;6.57;;
30398;SDS011;17195;50.838;7.214;2022-07-24T02:37:31;8.35;;;7.50;;
30398;SDS011;17195;50.838;7.214;2022-07-24T02:39:59;7.60;;;6.90;;
30398;SDS011;17195;50.838;7.214;2022-07-24T02:42:25;9.52;;;7.40;;
30398;SDS011;17195;50.838;7.214;2022-07-24T02:44:50;7.95;;;7.05;;
30398;SDS011;17195;50.838;7.214;2022-07-24T02:47:16;7.68;;;6.97;;
30398;SDS011;17195;50.838;7.214;2022-07-24T02:49:41;7.72;;;6.72;;
30398;SDS011;17195;50.838;7.214;2022-07-24T02:52:07;8.27;;;7.28;;
30398;SDS011;17195;50.838;7.214;2022-07-24T02:54:32;7.32;;;6.60;;
30398;SDS011;17195;50.838;7.214;2022-07-24T02:56:58;8.80;;;7.35;;
30398;SDS011;17195;50.838;7.214;2022-07-24T02:59:23;8.30;;;7.38;;
30398;SDS011;17195;50.838;7.214;2022-07-24T03:01:49;7.85;;;6.72;;
30398;SDS011;17195;50.838;7.214;2022-07-24T03:04:14;8.55;;;7.68;;
30398;SDS011;17195;50.838;7.214;2022-07-24T03:06:40;7.18;;;6.47;;
30398;SDS011;17195;50.838;7.214;2022-07-24T03:09:05;7.68;;;6.97;;
30398;SDS011;17195;50.838;7.214;2022-07-24T03:11:31;7.35;;;6.72;;
30398;SDS011;17195;50.838;7.214;2022-07-24T03:13:57;7.85;;;7.05;;
30398;SDS011;17195;50.838;7.214;2022-07-24T03:16:22;8.38;;;6.85;;
30398;SDS011;17195;50.838;7.214;2022-07-24T03:18:48;7.82;;;7.10;;
30398;SDS011;17195;50.838;7.214;2022-07-24T03:21:14;7.93;;;6.82;;
30398;SDS011;17195;50.838;7.214;2022-07-24T03:23:41;7.85;;;6.65;;
30398;SDS011;17195;50.838;7.214;2022-07-24T03:26:06;7.03;;;6.32;;
30398;SDS011;17195;50.838;7.214;2022-07-24T03:28:32;7.78;;;7.03;;
30398;SDS011;17195;50.838;7.214;2022-07-24T03:30:58;9.70;;;7.22;;
30398;SDS011;17195;50.838;7.214;2022-07-24T03:33:25;9.82;;;7.03;;
30398;SDS011;17195;50.838;7.214;2022-07-24T03:35:51;8.27;;;7.47;;
30398;SDS011;17195;50.838;7.214;2022-07-24T03:38:16;8.55;;;7.65;;
30398;SDS011;17195;50.838;7.214;2022-07-24T03:40:42;7.40;;;6.70;;
30398;SDS011;17195;50.838;7.214;2022-07-24T03:43:08;7.63;;;6.93;;
30398;SDS011;17195;50.838;7.214;2022-07-24T03:45:33;8.32;;;6.85;;
30398;SDS011;17195;50.838;7.214;2022-07-24T03:47:59;8.85;;;7.15;;
30398;SDS011;17195;50.838;7.214;2022-07-24T03:50:24;7.55;;;6.82;;
30398;SDS011;17195;50.838;7.214;2022-07-24T03:52:50;8.55;;;6.85;;
30398;SDS011;17195;50.838;7.214;2022-07-24T03:55:16;8.35;;;6.50;;
30398;SDS011;17195;50.838;7.214;2022-07-24T03:57:41;7.35;;;6.65;;
30398;SDS011;17195;50.838;7.214;2022-07-24T04:00:07;7.95;;;6.93;;
30398;SDS011;17195;50.838;7.214;2022-07-24T04:02:34;8.27;;;6.50;;
30398;SDS011;17195;50.838;7.214;2022-07-24T04:04:59;8.15;;;7.35;;
30398;SDS011;17195;50.838;7.214;2022-07-24T04:07:25;9.45;;;7.68;;
30398;SDS011;17195;50.838;7.214;2022-07-24T04:09:50;8.55;;;6.97;;
30398;SDS011;17195;50.838;7.214;2022-07-24T04:12:16;7.82;;;7.13;;
30398;SDS011;17195;50.838;7.214;2022-07-24T04:14:42;7.72;;;7.03;;
30398;SDS011;17195;50.838;7.214;2022-07-24T04:17:07;7.55;;;6.75;;
30398;SDS011;17195;50.838;7.214;2022-07-24T04:19:33;7.97;;;7.25;;
30398;SDS011;17195;50.838;7.214;2022-07-24T04:21:58;11.40;;;7.15;;
30398;SDS011;17195;50.838;7.214;2022-07-24T04:24:24;7.57;;;6.88;;
30398;SDS011;17195;50.838;7.214;2022-07-24T04:26:50;8.45;;;7.50;;
30398;SDS011;17195;50.838;7.214;2022-07-24T04:29:15;9.90;;;7.95;;
30398;SDS011;17195;50.838;7.214;2022-07-24T04:31:41;9.05;;;7.07;;
30398;SDS011;17195;50.838;7.214;2022-07-24T04:34:06;9.30;;;6.93;;
30398;SDS011;17195;50.838;7.214;2022-07-24T04:36:32;9.30;;;6.50;;
30398;SDS011;17195;50.838;7.214;2022-07-24T04:38:58;8.57;;;6.70;;
30398;SDS011;17195;50.838;7.214;2022-07-24T04:41:23;7.20;;;6.50;;
30398;SDS011;17195;50.838;7.214;2022-07-24T04:43:49;7.85;;;6.53;;
30398;SDS011;17195;50.838;7.214;2022-07-24T04:46:15;9.43;;;6.45;;
30398;SDS011;17195;50.838;7.214;2022-07-24T04:48:41;7.35;;;6.55;;
30398;SDS011;17195;50.838;7.214;2022-07-24T04:51:07;7.35;;;6.45;;
30398;SDS011;17195;50.838;7.214;2022-07-24T04:53:32;7.35;;;6.63;;
30398;SDS011;17195;50.838;7.214;2022-07-24T04:55:58;7.07;;;6.38;;
30398;SDS011;17195;50.838;7.214;2022-07-24T04:58:23;7.38;;;6.78;;
30398;SDS011;17195;50.838;7.214;2022-07-24T05:00:50;8.05;;;6.55;;
30398;SDS011;17195;50.838;7.214;2022-07-24T05:03:16;6.88;;;6.20;;
30398;SDS011;17195;50.838;7.214;2022-07-24T05:05:41;7.22;;;6.30;;
30398;SDS011;17195;50.838;7.214;2022-07-24T05:08:07;7.40;;;6.65;;
30398;SDS011;17195;50.838;7.214;2022-07-24T05:10:32;6.82;;;6.13;;
30398;SDS011;17195;50.838;7.214;2022-07-24T05:12:58;6.88;;;6.20;;
30398;SDS011;17195;50.838;7.214;2022-07-24T05:15:23;6.90;;;6.05;;
30398;SDS011;17195;50.838;7.214;2022-07-24T05:17:49;8.35;;;6.80;;
30398;SDS011;17195;50.838;7.214;2022-07-24T05:20:14;7.35;;;6.38;;
30398;SDS011;17195;50.838;7.214;2022-07-24T05:22:40;6.85;;;6.30;;
30398;SDS011;17195;50.838;7.214;2022-07-24T05:25:06;6.82;;;6.20;;
30398;SDS011;17195;50.838;7.214;2022-07-24T05:27:31;6.95;;;6.05;;
30398;SDS011;17195;50.838;7.214;2022-07-24T05:29:57;6.20;;;5.60;;
30398;SDS011;17195;50.838;7.214;2022-07-24T05:32:23;7.13;;;5.45;;
30398;SDS011;17195;50.838;7.214;2022-07-24T05:34:48;8.40;;;6.10;;
30398;SDS011;17195;50.838;7.214;2022-07-24T05:37:14;6.68;;;6.07;;
30398;SDS011;17195;50.838;7.214;2022-07-24T05:39:39;6.75;;;6.15;;
30398;SDS011;17195;50.838;7.214;2022-07-24T05:42:05;7.15;;;6.22;;
30398;SDS011;17195;50.838;7.214;2022-07-24T05:44:30;6.03;;;5.53;;
30398;SDS011;17195;50.838;7.214;2022-07-24T05:46:56;6.43;;;5.75;;
30398;SDS011;17195;50.838;7.214;2022-07-24T05:49:21;6.38;;;5.78;;
30398;SDS011;17195;50.838;7.214;2022-07-24T05:51:47;5.82;;;5.32;;
30398;SDS011;17195;50.838;7.214;2022-07-24T05:54:13;8.10;;;5.55;;
30398;SDS011;17195;50.838;7.214;2022-07-24T05:56:38;6.50;;;5.38;;
30398;SDS011;17195;50.838;7.214;2022-07-24T05:59:04;7.10;;;5.70;;
30398;SDS011;17195;50.838;7.214;2022-07-24T06:01:29;6.20;;;5.45;;
30398;SDS011;17195;50.838;7.214;2022-07-24T06:03:55;6.50;;;5.90;;
30398;SDS011;17195;50.838;7.214;2022-07-24T06:06:20;5.47;;;5.00;;
30398;SDS011;17195;50.838;7.214;2022-07-24T06:08:46;8.23;;;5.75;;
30398;SDS011;17195;50.838;7.214;2022-07-24T06:11:11;8.27;;;5.68;;
30398;SDS011;17195;50.838;7.214;2022-07-24T06:13:37;5.47;;;4.97;;
30398;SDS011;17195;50.838;7.214;2022-07-24T06:16:03;7.72;;;4.78;;
30398;SDS011;17195;50.838;7.214;2022-07-24T06:18:29;5.57;;;5.07;;
30398;SDS011;17195;50.838;7.214;2022-07-24T06:20:54;5.70;;;5.20;;
30398;SDS011;17195;50.838;7.214;2022-07-24T06:23:20;5.47;;;4.85;;
30398;SDS011;17195;50.838;7.214;2022-07-24T06:25:45;6.60;;;5.25;;
30398;SDS011;17195;50.838;7.214;2022-07-24T06:28:11;6.05;;;5.13;;
30398;SDS011;17195;50.838;7.214;2022-07-24T06:30:36;5.00;;;4.57;;
30398;SDS011;17195;50.838;7.214;2022-07-24T06:33:02;4.70;;;4.30;;
30398;SDS011;17195;50.838;7.214;2022-07-24T06:35:27;7.43;;;4.60;;
30398;SDS011;17195;50.838;7.214;2022-07-24T06:37:57;4.55;;;4.15;;
30398;SDS011;17195;50.838;7.214;2022-07-24T06:40:23;5.55;;;4.50;;
30398;SDS011;17195;50.838;7.214;2022-07-24T06:42:48;6.53;;;4.60;;
30398;SDS011;17195;50.838;7.214;2022-07-24T06:45:14;4.70;;;4.30;;
30398;SDS011;17195;50.838;7.214;2022-07-24T06:47:41;4.45;;;3.95;;
30398;SDS011;17195;50.838;7.214;2022-07-24T06:50:08;4.57;;;3.80;;
30398;SDS011;17195;50.838;7.214;2022-07-24T06:52:34;4.28;;;3.72;;
30398;SDS011;17195;50.838;7.214;2022-07-24T06:55:00;4.47;;;4.05;;
30398;SDS011;17195;50.838;7.214;2022-07-24T06:57:26;4.50;;;4.10;;
30398;SDS011;17195;50.838;7.214;2022-07-24T06:59:52;6.75;;;4.45;;
30398;SDS011;17195;50.838;7.214;2022-07-24T07:02:18;5.30;;;3.92;;
30398;SDS011;17195;50.838;7.214;2022-07-24T07:04:44;5.85;;;4.00;;
30398;SDS011;17195;50.838;7.214;2022-07-24T07:07:10;6.13;;;3.75;;
30398;SDS011;17195;50.838;7.214;2022-07-24T07:09:35;4.10;;;3.70;;
30398;SDS011;17195;50.838;7.214;2022-07-24T07:12:02;5.03;;;3.60;;
30398;SDS011;17195;50.838;7.214;2022-07-24T07:14:28;4.18;;;3.67;;
30398;SDS011;17195;50.838;7.214;2022-07-24T07:16:54;4.82;;;3.72;;
30398;SDS011;17195;50.838;7.214;2022-07-24T07:19:19;3.78;;;3.47;;
30398;SDS011;17195;50.838;7.214;2022-07-24T07:21:45;7.53;;;4.05;;
30398;SDS011;17195;50.838;7.214;2022-07-24T07:24:10;4.72;;;3.97;;
30398;SDS011;17195;50.838;7.214;2022-07-24T07:26:36;4.35;;;3.78;;
30398;SDS011;17195;50.838;7.214;2022-07-24T07:29:01;3.85;;;3.55;;
30398;SDS011;17195;50.838;7.214;2022-07-24T07:31:27;4.53;;;3.72;;
30398;SDS011;17195;50.838;7.214;2022-07-24T07:33:53;5.15;;;3.70;;
30398;SDS011;17195;50.838;7.214;2022-07-24T07:36:18;4.10;;;3.80;;
30398;SDS011;17195;50.838;7.214;2022-07-24T07:38:44;6.03;;;4.13;;
30398;SDS011;17195;50.838;7.214;2022-07-24T07:41:10;4.90;;;4.03;;
30398;SDS011;17195;50.838;7.214;2022-07-24T07:43:37;5.47;;;3.95;;
30398;SDS011;17195;50.838;7.214;2022-07-24T07:46:02;6.03;;;4.10;;
30398;SDS011;17195;50.838;7.214;2022-07-24T07:48:28;7.05;;;4.00;;
30398;SDS011;17195;50.838;7.214;2022-07-24T07:50:55;4.57;;;4.05;;
30398;SDS011;17195;50.838;7.214;2022-07-24T07:53:21;5.82;;;4.13;;
30398;SDS011;17195;50.838;7.214;2022-07-24T07:55:46;6.57;;;4.10;;
30398;SDS011;17195;50.838;7.214;2022-07-24T07:58:16;3.92;;;3.63;;
30398;SDS011;17195;50.838;7.214;2022-07-24T08:00:45;5.50;;;3.72;;
30398;SDS011;17195;50.838;7.214;2022-07-24T08:03:10;4.60;;;3.83;;
30398;SDS011;17195;50.838;7.214;2022-07-24T08:05:36;4.28;;;3.88;;
30398;SDS011;17195;50.838;7.214;2022-07-24T08:08:01;4.05;;;3.67;;
30398;SDS011;17195;50.838;7.214;2022-07-24T08:10:27;6.40;;;3.83;;
30398;SDS011;17195;50.838;7.214;2022-07-24T08:12:53;4.60;;;3.50;;
30398;SDS011;17195;50.838;7.214;2022-07-24T08:15:19;4.18;;;3.78;;
30398;SDS011;17195;50.838;7.214;2022-07-24T08:17:45;4.53;;;3.70;;
30398;SDS011;17195;50.838;7.214;2022-07-24T08:20:11;4.32;;;3.92;;
30398;SDS011;17195;50.838;7.214;2022-07-24T08:22:36;3.83;;;3.47;;
30398;SDS011;17195;50.838;7.214;2022-07-24T08:25:02;5.38;;;3.70;;
30398;SDS011;17195;50.838;7.214;2022-07-24T08:27:28;4.00;;;3.47;;
30398;SDS011;17195;50.838;7.214;2022-07-24T08:29:54;5.30;;;3.83;;
30398;SDS011;17195;50.838;7.214;2022-07-24T08:32:19;4.68;;;3.80;;
30398;SDS011;17195;50.838;7.214;2022-07-24T08:34:45;4.85;;;3.80;;
30398;SDS011;17195;50.838;7.214;2022-07-24T08:37:11;4.22;;;3.83;;
30398;SDS011;17195;50.838;7.214;2022-07-24T08:39:36;4.20;;;3.78;;
30398;SDS011;17195;50.838;7.214;2022-07-24T08:42:02;5.05;;;3.78;;
30398;SDS011;17195;50.838;7.214;2022-07-24T08:44:28;5.22;;;3.92;;
30398;SDS011;17195;50.838;7.214;2022-07-24T08:46:54;4.93;;;3.60;;
30398;SDS011;17195;50.838;7.214;2022-07-24T08:49:22;4.43;;;3.67;;
30398;SDS011;17195;50.838;7.214;2022-07-24T08:51:51;4.13;;;3.72;;
30398;SDS011;17195;50.838;7.214;2022-07-24T08:54:17;5.13;;;3.90;;
30398;SDS011;17195;50.838;7.214;2022-07-24T08:56:43;5.38;;;4.30;;
30398;SDS011;17195;50.838;7.214;2022-07-24T08:59:14;4.07;;;3.78;;
30398;SDS011;17195;50.838;7.214;2022-07-24T09:01:44;4.93;;;4.25;;
30398;SDS011;17195;50.838;7.214;2022-07-24T09:07:10;5.22;;;4.32;;
30398;SDS011;17195;50.838;7.214;2022-07-24T09:09:41;4.47;;;4.07;;
30398;SDS011;17195;50.838;7.214;2022-07-24T09:12:12;6.43;;;3.80;;
30398;SDS011;17195;50.838;7.214;2022-07-24T09:14:45;4.00;;;3.60;;
30398;SDS011;17195;50.838;7.214;2022-07-24T09:17:13;8.23;;;4.20;;
30398;SDS011;17195;50.838;7.214;2022-07-24T09:19:51;4.90;;;4.35;;
30398;SDS011;17195;50.838;7.214;2022-07-24T09:25:15;4.90;;;4.00;;
30398;SDS011;17195;50.838;7.214;2022-07-24T09:30:34;4.70;;;4.25;;
30398;SDS011;17195;50.838;7.214;2022-07-24T09:35:31;5.43;;;4.22;;
30398;SDS011;17195;50.838;7.214;2022-07-24T09:37:59;7.15;;;4.78;;
30398;SDS011;17195;50.838;7.214;2022-07-24T09:40:30;11.02;;;4.10;;
30398;SDS011;17195;50.838;7.214;2022-07-24T09:46:19;5.65;;;4.38;;
30398;SDS011;17195;50.838;7.214;2022-07-24T09:48:52;5.30;;;4.40;;
30398;SDS011;17195;50.838;7.214;2022-07-24T09:51:20;5.28;;;4.15;;
30398;SDS011;17195;50.838;7.214;2022-07-24T09:53:46;5.10;;;4.32;;
30398;SDS011;17195;50.838;7.214;2022-07-24T09:56:18;6.45;;;4.40;;
30398;SDS011;17195;50.838;7.214;2022-07-24T10:01:09;4.68;;;4.13;;
30398;SDS011;17195;50.838;7.214;2022-07-24T10:03:36;5.00;;;4.03;;
30398;SDS011;17195;50.838;7.214;2022-07-24T10:06:04;4.65;;;4.15;;
30398;SDS011;17195;50.838;7.214;2022-07-24T10:08:35;5.63;;;4.05;;
30398;SDS011;17195;50.838;7.214;2022-07-24T10:11:03;4.60;;;4.00;;
30398;SDS011;17195;50.838;7.214;2022-07-24T10:13:29;3.80;;;3.50;;
30398;SDS011;17195;50.838;7.214;2022-07-24T10:18:21;4.60;;;4.15;;
30398;SDS011;17195;50.838;7.214;2022-07-24T10:20:55;7.47;;;3.90;;
30398;SDS011;17195;50.838;7.214;2022-07-24T10:23:31;4.20;;;3.75;;
30398;SDS011;17195;50.838;7.214;2022-07-24T10:26:26;5.50;;;3.88;;
30398;SDS011;17195;50.838;7.214;2022-07-24T10:29:07;4.10;;;3.80;;
30398;SDS011;17195;50.838;7.214;2022-07-24T10:31:38;7.65;;;4.22;;
30398;SDS011;17195;50.838;7.214;2022-07-24T10:36:54;5.95;;;4.38;;
30398;SDS011;17195;50.838;7.214;2022-07-24T10:39:33;5.03;;;3.97;;
30398;SDS011;17195;50.838;7.214;2022-07-24T10:42:04;6.10;;;4.00;;
30398;SDS011;17195;50.838;7.214;2022-07-24T10:44:31;4.03;;;3.72;;
30398;SDS011;17195;50.838;7.214;2022-07-24T10:49:40;4.43;;;3.83;;
30398;SDS011;17195;50.838;7.214;2022-07-24T10:57:47;6.75;;;4.00;;
30398;SDS011;17195;50.838;7.214;2022-07-24T11:00:37;4.00;;;3.70;;
30398;SDS011;17195;50.838;7.214;2022-07-24T11:03:07;4.18;;;3.78;;
30398;SDS011;17195;50.838;7.214;2022-07-24T11:05:42;5.53;;;4.00;;
30398;SDS011;17195;50.838;7.214;2022-07-24T11:08:27;4.97;;;3.88;;
30398;SDS011;17195;50.838;7.214;2022-07-24T11:10:58;4.38;;;4.00;;
30398;SDS011;17195;50.838;7.214;2022-07-24T11:21:28;3.90;;;3.60;;
30398;SDS011;17195;50.838;7.214;2022-07-24T11:26:39;4.50;;;4.10;;
30398;SDS011;17195;50.838;7.214;2022-07-24T11:29:21;4.93;;;3.80;;
30398;SDS011;17195;50.838;7.214;2022-07-24T11:31:49;5.65;;;5.15;;
30398;SDS011;17195;50.838;7.214;2022-07-24T11:34:18;5.57;;;3.75;;
30398;SDS011;17195;50.838;7.214;2022-07-24T11:36:44;4.28;;;3.88;;
30398;SDS011;17195;50.838;7.214;2022-07-24T11:39:13;4.88;;;4.00;;
30398;SDS011;17195;50.838;7.214;2022-07-24T11:41:46;4.00;;;3.65;;
30398;SDS011;17195;50.838;7.214;2022-07-24T11:44:14;5.50;;;4.13;;
30398;SDS011;17195;50.838;7.214;2022-07-24T11:46:46;3.80;;;3.50;;
30398;SDS011;17195;50.838;7.214;2022-07-24T11:49:12;4.50;;;4.05;;
30398;SDS011;17195;50.838;7.214;2022-07-24T11:51:41;4.15;;;3.70;;
30398;SDS011;17195;50.838;7.214;2022-07-24T11:54:11;4.10;;;3.80;;
30398;SDS011;17195;50.838;7.214;2022-07-24T11:56:39;4.50;;;4.07;;
30398;SDS011;17195;50.838;7.214;2022-07-24T11:59:05;4.70;;;4.18;;
30398;SDS011;17195;50.838;7.214;2022-07-24T12:01:45;4.68;;;3.92;;
30398;SDS011;17195;50.838;7.214;2022-07-24T12:04:10;3.95;;;3.50;;
30398;SDS011;17195;50.838;7.214;2022-07-24T12:06:36;5.10;;;4.00;;
30398;SDS011;17195;50.838;7.214;2022-07-24T12:09:05;3.67;;;3.38;;
30398;SDS011;17195;50.838;7.214;2022-07-24T12:11:33;4.72;;;3.50;;
30398;SDS011;17195;50.838;7.214;2022-07-24T12:13:59;3.80;;;3.50;;
30398;SDS011;17195;50.838;7.214;2022-07-24T12:16:25;3.78;;;3.33;;
30398;SDS011;17195;50.838;7.214;2022-07-24T12:18:53;4.22;;;3.78;;
30398;SDS011;17195;50.838;7.214;2022-07-24T12:21:39;3.58;;;3.22;;
30398;SDS011;17195;50.838;7.214;2022-07-24T12:24:06;3.65;;;3.35;;
30398;SDS011;17195;50.838;7.214;2022-07-24T12:26:31;4.43;;;3.50;;
30398;SDS011;17195;50.838;7.214;2022-07-24T12:29:10;3.78;;;3.42;;
30398;SDS011;17195;50.838;7.214;2022-07-24T12:31:36;5.13;;;3.67;;
30398;SDS011;17195;50.838;7.214;2022-07-24T12:34:02;6.85;;;3.90;;
30398;SDS011;17195;50.838;7.214;2022-07-24T12:36:29;4.00;;;3.60;;
30398;SDS011;17195;50.838;7.214;2022-07-24T12:38:55;3.78;;;3.47;;
30398;SDS011;17195;50.838;7.214;2022-07-24T12:41:22;7.32;;;3.28;;
30398;SDS011;17195;50.838;7.214;2022-07-24T12:46:34;5.47;;;3.28;;
30398;SDS011;17195;50.838;7.214;2022-07-24T12:49:05;4.05;;;3.70;;
30398;SDS011;17195;50.838;7.214;2022-07-24T12:51:57;3.53;;;3.13;;
30398;SDS011;17195;50.838;7.214;2022-07-24T12:54:32;3.80;;;3.38;;
30398;SDS011;17195;50.838;7.214;2022-07-24T12:57:00;4.18;;;3.40;;
30398;SDS011;17195;50.838;7.214;2022-07-24T12:59:32;4.38;;;4.00;;
30398;SDS011;17195;50.838;7.214;2022-07-24T13:01:59;3.70;;;3.40;;
30398;SDS011;17195;50.838;7.214;2022-07-24T13:04:45;4.55;;;3.22;;
30398;SDS011;17195;50.838;7.214;2022-07-24T13:07:12;4.78;;;3.53;;
30398;SDS011;17195;50.838;7.214;2022-07-24T13:09:39;5.30;;;3.55;;
30398;SDS011;17195;50.838;7.214;2022-07-24T13:12:06;3.67;;;3.38;;
30398;SDS011;17195;50.838;7.214;2022-07-24T13:14:32;4.15;;;3.42;;
30398;SDS011;17195;50.838;7.214;2022-07-24T13:17:03;3.58;;;3.28;;
30398;SDS011;17195;50.838;7.214;2022-07-24T13:19:31;3.20;;;3.00;;
30398;SDS011;17195;50.838;7.214;2022-07-24T13:21:57;3.70;;;3.40;;
30398;SDS011;17195;50.838;7.214;2022-07-24T13:24:22;3.47;;;3.10;;
30398;SDS011;17195;50.838;7.214;2022-07-24T13:26:48;3.88;;;3.10;;
30398;SDS011;17195;50.838;7.214;2022-07-24T13:29:13;3.63;;;3.30;;
30398;SDS011;17195;50.838;7.214;2022-07-24T13:31:40;3.38;;;3.08;;
30398;SDS011;17195;50.838;7.214;2022-07-24T13:34:05;4.45;;;3.53;;
30398;SDS011;17195;50.838;7.214;2022-07-24T13:36:33;3.60;;;3.30;;
30398;SDS011;17195;50.838;7.214;2022-07-24T13:38:59;4.43;;;3.45;;
30398;SDS011;17195;50.838;7.214;2022-07-24T13:41:24;4.00;;;3.63;;
30398;SDS011;17195;50.838;7.214;2022-07-24T13:43:50;3.40;;;3.10;;
30398;SDS011;17195;50.838;7.214;2022-07-24T13:46:16;5.88;;;3.13;;
30398;SDS011;17195;50.838;7.214;2022-07-24T13:48:43;4.70;;;3.10;;
30398;SDS011;17195;50.838;7.214;2022-07-24T13:51:09;3.83;;;3.42;;
30398;SDS011;17195;50.838;7.214;2022-07-24T13:53:35;3.30;;;3.00;;
30398;SDS011;17195;50.838;7.214;2022-07-24T13:56:03;3.45;;;3.15;;
30398;SDS011;17195;50.838;7.214;2022-07-24T13:58:30;3.30;;;3.00;;
30398;SDS011;17195;50.838;7.214;2022-07-24T14:00:55;3.10;;;2.80;;
30398;SDS011;17195;50.838;7.214;2022-07-24T14:03:21;3.17;;;2.90;;
30398;SDS011;17195;50.838;7.214;2022-07-24T14:05:46;4.40;;;3.40;;
30398;SDS011;17195;50.838;7.214;2022-07-24T14:08:12;3.28;;;2.90;;
30398;SDS011;17195;50.838;7.214;2022-07-24T14:10:37;4.13;;;3.08;;
30398;SDS011;17195;50.838;7.214;2022-07-24T14:13:03;3.92;;;3.40;;
30398;SDS011;17195;50.838;7.214;2022-07-24T14:15:28;4.13;;;3.22;;
30398;SDS011;17195;50.838;7.214;2022-07-24T14:17:55;3.08;;;2.78;;
30398;SDS011;17195;50.838;7.214;2022-07-24T14:20:21;2.88;;;2.67;;
30398;SDS011;17195;50.838;7.214;2022-07-24T14:22:46;3.10;;;2.90;;
30398;SDS011;17195;50.838;7.214;2022-07-24T14:25:12;3.35;;;3.03;;
30398;SDS011;17195;50.838;7.214;2022-07-24T14:27:37;3.13;;;2.88;;
30398;SDS011;17195;50.838;7.214;2022-07-24T14:30:04;2.97;;;2.78;;
30398;SDS011;17195;50.838;7.214;2022-07-24T14:32:30;2.88;;;2.65;;
30398;SDS011;17195;50.838;7.214;2022-07-24T14:34:55;3.55;;;2.80;;
30398;SDS011;17195;50.838;7.214;2022-07-24T14:37:21;3.20;;;2.90;;
30398;SDS011;17195;50.838;7.214;2022-07-24T14:39:47;2.92;;;2.75;;
30398;SDS011;17195;50.838;7.214;2022-07-24T14:42:12;3.05;;;2.85;;
30398;SDS011;17195;50.838;7.214;2022-07-24T14:44:38;2.80;;;2.60;;
30398;SDS011;17195;50.838;7.214;2022-07-24T14:47:03;3.20;;;3.00;;
30398;SDS011;17195;50.838;7.214;2022-07-24T14:49:32;3.25;;;2.95;;
30398;SDS011;17195;50.838;7.214;2022-07-24T14:51:58;3.33;;;3.03;;
30398;SDS011;17195;50.838;7.214;2022-07-24T14:54:24;2.65;;;2.45;;
30398;SDS011;17195;50.838;7.214;2022-07-24T14:56:49;3.28;;;2.97;;
30398;SDS011;17195;50.838;7.214;2022-07-24T14:59:15;2.85;;;2.65;;
30398;SDS011;17195;50.838;7.214;2022-07-24T15:01:41;5.13;;;3.08;;
30398;SDS011;17195;50.838;7.214;2022-07-24T15:04:07;2.97;;;2.67;;
30398;SDS011;17195;50.838;7.214;2022-07-24T15:06:33;2.90;;;2.70;;
30398;SDS011;17195;50.838;7.214;2022-07-24T15:08:59;4.05;;;2.60;;
30398;SDS011;17195;50.838;7.214;2022-07-24T15:11:25;4.03;;;2.22;;
30398;SDS011;17195;50.838;7.214;2022-07-24T15:13:51;2.65;;;2.40;;
30398;SDS011;17195;50.838;7.214;2022-07-24T15:16:17;3.25;;;2.65;;
30398;SDS011;17195;50.838;7.214;2022-07-24T15:18:43;2.83;;;2.63;;
30398;SDS011;17195;50.838;7.214;2022-07-24T15:21:09;4.07;;;2.20;;
30398;SDS011;17195;50.838;7.214;2022-07-24T15:23:35;2.60;;;2.40;;
30398;SDS011;17195;50.838;7.214;2022-07-24T15:26:00;4.35;;;2.40;;
30398;SDS011;17195;50.838;7.214;2022-07-24T15:28:26;2.65;;;2.38;;
30398;SDS011;17195;50.838;7.214;2022-07-24T15:30:52;2.67;;;2.47;;